sensor_id;sensor_type;location;lat;lon;timestamp;temperature;humidity
50067;DHT22;35952;52.524;13.340;2023-04-03T00:00:42;2.20;99.90
50067;DHT22;35952;52.524;13.340;2023-04-03T00:03:07;2.30;99.90
50067;DHT22;35952;52.524;13.340;2023-04-03T00:05:33;2.30;99.90
50067;DHT22;35952;52.524;13.340;2023-04-03T00:07:58;2.30;99.90
50067;DHT22;35952;52.524;13.340;2023-04-03T00:10:24;2.30;99.90
50067;DHT22;35952;52.524;13.340;2023-04-03T00:12:50;2.20;99.90
50067;DHT22;35952;52.524;13.340;2023-04-03T00:15:15;2.20;99.90
50067;DHT22;35952;52.524;13.340;2023-04-03T00:17:41;2.20;99.90
50067;DHT22;35952;52.524;13.340;2023-04-03T00:20:07;2.10;99.90
50067;DHT22;35952;52.524;13.340;2023-04-03T00:22:32;2.20;99.90
50067;DHT22;35952;52.524;13.340;2023-04-03T00:24:58;2.20;99.90
50067;DHT22;35952;52.524;13.340;2023-04-03T00:27:24;2.20;99.90
50067;DHT22;35952;52.524;13.340;2023-04-03T00:29:49;2.00;99.90
50067;DHT22;35952;52.524;13.340;2023-04-03T00:32:15;2.00;99.90
50067;DHT22;35952;52.524;13.340;2023-04-03T00:34:40;2.00;99.90
50067;DHT22;35952;52.524;13.340;2023-04-03T00:37:06;2.10;99.90
50067;DHT22;35952;52.524;13.340;2023-04-03T00:39:31;2.10;99.90
50067;DHT22;35952;52.524;13.340;2023-04-03T00:41:57;2.00;99.90
50067;DHT22;35952;52.524;13.340;2023-04-03T00:47:11;2.00;99.90
50067;DHT22;35952;52.524;13.340;2023-04-03T00:49:37;1.80;99.90
50067;DHT22;35952;52.524;13.340;2023-04-03T00:52:05;1.90;99.90
50067;DHT22;35952;52.524;13.340;2023-04-03T00:54:32;2.00;99.90
50067;DHT22;35952;52.524;13.340;2023-04-03T00:56:58;2.00;99.90
50067;DHT22;35952;52.524;13.340;2023-04-03T00:59:27;1.90;99.90
50067;DHT22;35952;52.524;13.340;2023-04-03T01:01:55;2.00;99.90
50067;DHT22;35952;52.524;13.340;2023-04-03T01:07:04;2.00;99.90
50067;DHT22;35952;52.524;13.340;2023-04-03T01:09:31;1.90;99.90
50067;DHT22;35952;52.524;13.340;2023-04-03T01:12:14;2.00;99.90
50067;DHT22;35952;52.524;13.340;2023-04-03T01:14:41;1.90;99.90
50067;DHT22;35952;52.524;13.340;2023-04-03T01:25:48;1.90;99.90
50067;DHT22;35952;52.524;13.340;2023-04-03T01:28:23;1.90;99.90
50067;DHT22;35952;52.524;13.340;2023-04-03T01:33:47;1.80;99.90
50067;DHT22;35952;52.524;13.340;2023-04-03T01:36:42;1.80;99.90
50067;DHT22;35952;52.524;13.340;2023-04-03T01:39:08;1.80;99.90
50067;DHT22;35952;52.524;13.340;2023-04-03T01:41:33;1.80;99.90
50067;DHT22;35952;52.524;13.340;2023-04-03T01:43:59;1.70;99.90
50067;DHT22;35952;52.524;13.340;2023-04-03T01:46:25;1.70;99.90
50067;DHT22;35952;52.524;13.340;2023-04-03T01:48:50;1.70;99.90
50067;DHT22;35952;52.524;13.340;2023-04-03T01:51:16;1.70;99.90
50067;DHT22;35952;52.524;13.340;2023-04-03T01:53:42;1.70;99.90
50067;DHT22;35952;52.524;13.340;2023-04-03T01:56:07;1.70;99.90
50067;DHT22;35952;52.524;13.340;2023-04-03T01:58:33;1.70;99.90
50067;DHT22;35952;52.524;13.340;2023-04-03T02:00:59;1.70;99.90
50067;DHT22;35952;52.524;13.340;2023-04-03T02:03:24;1.60;99.90
50067;DHT22;35952;52.524;13.340;2023-04-03T02:05:50;1.60;99.90
50067;DHT22;35952;52.524;13.340;2023-04-03T02:08:16;1.60;99.90
50067;DHT22;35952;52.524;13.340;2023-04-03T02:10:44;1.50;99.90
50067;DHT22;35952;52.524;13.340;2023-04-03T02:13:10;1.60;99.90
50067;DHT22;35952;52.524;13.340;2023-04-03T02:15:38;1.60;99.90
50067;DHT22;35952;52.524;13.340;2023-04-03T02:18:04;1.50;99.90
50067;DHT22;35952;52.524;13.340;2023-04-03T02:20:30;1.50;99.90
50067;DHT22;35952;52.524;13.340;2023-04-03T02:22:55;1.50;99.90
50067;DHT22;35952;52.524;13.340;2023-04-03T02:25:21;1.40;99.90
50067;DHT22;35952;52.524;13.340;2023-04-03T02:27:47;1.50;99.90
50067;DHT22;35952;52.524;13.340;2023-04-03T02:30:12;1.50;99.90
50067;DHT22;35952;52.524;13.340;2023-04-03T02:32:40;1.50;99.90
50067;DHT22;35952;52.524;13.340;2023-04-03T02:35:06;1.60;99.90
50067;DHT22;35952;52.524;13.340;2023-04-03T02:37:32;1.60;99.90
50067;DHT22;35952;52.524;13.340;2023-04-03T02:39:58;1.50;99.90
50067;DHT22;35952;52.524;13.340;2023-04-03T02:42:24;1.50;99.90
50067;DHT22;35952;52.524;13.340;2023-04-03T02:44:49;1.50;99.90
50067;DHT22;35952;52.524;13.340;2023-04-03T02:47:15;1.50;99.90
50067;DHT22;35952;52.524;13.340;2023-04-03T02:49:41;1.50;99.90
50067;DHT22;35952;52.524;13.340;2023-04-03T02:52:09;1.50;99.90
50067;DHT22;35952;52.524;13.340;2023-04-03T02:54:34;1.40;99.90
50067;DHT22;35952;52.524;13.340;2023-04-03T02:57:00;1.50;99.90
50067;DHT22;35952;52.524;13.340;2023-04-03T02:59:25;1.40;99.90
50067;DHT22;35952;52.524;13.340;2023-04-03T03:01:51;1.40;99.90
50067;DHT22;35952;52.524;13.340;2023-04-03T03:04:17;1.40;99.90
50067;DHT22;35952;52.524;13.340;2023-04-03T03:06:42;1.40;99.90
50067;DHT22;35952;52.524;13.340;2023-04-03T03:09:08;1.30;99.90
50067;DHT22;35952;52.524;13.340;2023-04-03T03:11:33;1.20;99.90
50067;DHT22;35952;52.524;13.340;2023-04-03T03:13:59;1.10;99.90
50067;DHT22;35952;52.524;13.340;2023-04-03T03:16:25;1.10;99.90
50067;DHT22;35952;52.524;13.340;2023-04-03T03:18:50;1.20;99.90
50067;DHT22;35952;52.524;13.340;2023-04-03T03:21:16;1.20;99.90
50067;DHT22;35952;52.524;13.340;2023-04-03T03:23:41;1.30;99.90
50067;DHT22;35952;52.524;13.340;2023-04-03T03:26:09;1.20;99.90
50067;DHT22;35952;52.524;13.340;2023-04-03T03:28:37;1.10;99.90
50067;DHT22;35952;52.524;13.340;2023-04-03T03:31:03;1.10;99.90
50067;DHT22;35952;52.524;13.340;2023-04-03T03:33:29;1.10;99.90
50067;DHT22;35952;52.524;13.340;2023-04-03T03:35:54;1.10;99.90
50067;DHT22;35952;52.524;13.340;2023-04-03T03:38:20;1.00;99.90
50067;DHT22;35952;52.524;13.340;2023-04-03T03:40:50;1.00;99.90
50067;DHT22;35952;52.524;13.340;2023-04-03T03:43:16;1.00;99.90
50067;DHT22;35952;52.524;13.340;2023-04-03T03:45:42;1.00;99.90
50067;DHT22;35952;52.524;13.340;2023-04-03T03:48:08;1.00;99.90
50067;DHT22;35952;52.524;13.340;2023-04-03T03:50:33;0.90;99.90
50067;DHT22;35952;52.524;13.340;2023-04-03T03:52:59;0.90;99.90
50067;DHT22;35952;52.524;13.340;2023-04-03T03:55:25;1.00;99.90
50067;DHT22;35952;52.524;13.340;2023-04-03T03:57:51;1.00;99.90
50067;DHT22;35952;52.524;13.340;2023-04-03T04:00:17;0.90;99.90
50067;DHT22;35952;52.524;13.340;2023-04-03T04:02:43;0.80;99.90
50067;DHT22;35952;52.524;13.340;2023-04-03T04:05:08;0.90;99.90
50067;DHT22;35952;52.524;13.340;2023-04-03T04:07:34;0.90;99.90
50067;DHT22;35952;52.524;13.340;2023-04-03T04:09:59;0.80;99.90
50067;DHT22;35952;52.524;13.340;2023-04-03T04:12:25;0.90;99.90
50067;DHT22;35952;52.524;13.340;2023-04-03T04:14:50;0.80;99.90
50067;DHT22;35952;52.524;13.340;2023-04-03T04:17:16;0.80;99.90
50067;DHT22;35952;52.524;13.340;2023-04-03T04:19:41;0.80;99.90
50067;DHT22;35952;52.524;13.340;2023-04-03T04:22:07;0.80;99.90
50067;DHT22;35952;52.524;13.340;2023-04-03T04:24:32;0.70;99.90
50067;DHT22;35952;52.524;13.340;2023-04-03T04:26:58;0.70;99.90
50067;DHT22;35952;52.524;13.340;2023-04-03T04:29:23;0.80;99.90
50067;DHT22;35952;52.524;13.340;2023-04-03T04:31:49;0.80;99.90
50067;DHT22;35952;52.524;13.340;2023-04-03T04:34:15;0.90;99.90
50067;DHT22;35952;52.524;13.340;2023-04-03T04:36:41;0.80;99.90
50067;DHT22;35952;52.524;13.340;2023-04-03T04:39:06;0.90;99.90
50067;DHT22;35952;52.524;13.340;2023-04-03T04:41:32;0.80;99.90
50067;DHT22;35952;52.524;13.340;2023-04-03T04:43:58;0.80;99.90
50067;DHT22;35952;52.524;13.340;2023-04-03T04:46:24;0.80;99.90
50067;DHT22;35952;52.524;13.340;2023-04-03T04:48:49;0.70;99.90
50067;DHT22;35952;52.524;13.340;2023-04-03T04:51:15;0.80;99.90
50067;DHT22;35952;52.524;13.340;2023-04-03T04:53:41;0.80;99.90
50067;DHT22;35952;52.524;13.340;2023-04-03T04:56:10;0.80;99.90
50067;DHT22;35952;52.524;13.340;2023-04-03T04:58:39;0.90;99.90
50067;DHT22;35952;52.524;13.340;2023-04-03T05:01:07;0.80;99.90
50067;DHT22;35952;52.524;13.340;2023-04-03T05:03:33;0.90;99.90
50067;DHT22;35952;52.524;13.340;2023-04-03T05:05:59;1.00;99.90
50067;DHT22;35952;52.524;13.340;2023-04-03T05:08:24;1.00;99.90
50067;DHT22;35952;52.524;13.340;2023-04-03T05:10:50;1.00;99.90
50067;DHT22;35952;52.524;13.340;2023-04-03T05:13:16;1.00;99.90
50067;DHT22;35952;52.524;13.340;2023-04-03T05:15:42;1.10;99.90
50067;DHT22;35952;52.524;13.340;2023-04-03T05:18:07;1.10;99.90
50067;DHT22;35952;52.524;13.340;2023-04-03T05:20:34;1.20;99.90
50067;DHT22;35952;52.524;13.340;2023-04-03T05:23:00;1.20;99.90
50067;DHT22;35952;52.524;13.340;2023-04-03T05:25:26;1.20;99.90
50067;DHT22;35952;52.524;13.340;2023-04-03T05:27:51;1.30;99.90
50067;DHT22;35952;52.524;13.340;2023-04-03T05:30:17;1.40;99.90
50067;DHT22;35952;52.524;13.340;2023-04-03T05:32:43;1.40;99.90
50067;DHT22;35952;52.524;13.340;2023-04-03T05:35:09;1.50;99.90
50067;DHT22;35952;52.524;13.340;2023-04-03T05:37:35;1.40;99.90
50067;DHT22;35952;52.524;13.340;2023-04-03T05:40:03;1.50;99.90
50067;DHT22;35952;52.524;13.340;2023-04-03T05:42:28;1.60;99.90
50067;DHT22;35952;52.524;13.340;2023-04-03T05:44:54;1.60;99.90
50067;DHT22;35952;52.524;13.340;2023-04-03T05:47:20;1.60;99.90
50067;DHT22;35952;52.524;13.340;2023-04-03T05:49:46;1.70;99.90
50067;DHT22;35952;52.524;13.340;2023-04-03T05:52:22;1.80;99.90
50067;DHT22;35952;52.524;13.340;2023-04-03T05:54:49;1.80;99.90
50067;DHT22;35952;52.524;13.340;2023-04-03T05:57:15;1.90;99.90
50067;DHT22;35952;52.524;13.340;2023-04-03T05:59:42;1.90;99.90
50067;DHT22;35952;52.524;13.340;2023-04-03T06:02:08;2.00;99.90
50067;DHT22;35952;52.524;13.340;2023-04-03T06:04:34;2.00;99.90
50067;DHT22;35952;52.524;13.340;2023-04-03T06:07:00;2.00;99.90
50067;DHT22;35952;52.524;13.340;2023-04-03T06:09:28;2.10;99.90
50067;DHT22;35952;52.524;13.340;2023-04-03T06:11:57;2.00;99.90
50067;DHT22;35952;52.524;13.340;2023-04-03T06:14:24;2.00;99.90
50067;DHT22;35952;52.524;13.340;2023-04-03T06:16:50;2.00;99.90
50067;DHT22;35952;52.524;13.340;2023-04-03T06:19:15;2.10;99.90
50067;DHT22;35952;52.524;13.340;2023-04-03T06:21:41;2.20;99.90
50067;DHT22;35952;52.524;13.340;2023-04-03T06:24:07;2.20;99.90
50067;DHT22;35952;52.524;13.340;2023-04-03T06:26:34;2.30;99.90
50067;DHT22;35952;52.524;13.340;2023-04-03T06:28:59;2.40;99.90
50067;DHT22;35952;52.524;13.340;2023-04-03T06:31:25;2.40;99.90
50067;DHT22;35952;52.524;13.340;2023-04-03T06:33:51;2.40;99.90
50067;DHT22;35952;52.524;13.340;2023-04-03T06:36:18;2.50;99.90
50067;DHT22;35952;52.524;13.340;2023-04-03T06:38:46;2.70;99.90
50067;DHT22;35952;52.524;13.340;2023-04-03T06:41:12;2.80;99.90
50067;DHT22;35952;52.524;13.340;2023-04-03T06:43:37;2.90;99.90
50067;DHT22;35952;52.524;13.340;2023-04-03T06:46:03;3.00;99.90
50067;DHT22;35952;52.524;13.340;2023-04-03T06:48:29;3.10;99.90
50067;DHT22;35952;52.524;13.340;2023-04-03T06:50:55;3.20;99.90
50067;DHT22;35952;52.524;13.340;2023-04-03T06:53:20;3.20;99.90
50067;DHT22;35952;52.524;13.340;2023-04-03T06:55:47;3.30;99.90
50067;DHT22;35952;52.524;13.340;2023-04-03T06:58:13;3.50;99.90
50067;DHT22;35952;52.524;13.340;2023-04-03T07:00:40;3.50;99.90
50067;DHT22;35952;52.524;13.340;2023-04-03T07:03:06;3.70;99.90
50067;DHT22;35952;52.524;13.340;2023-04-03T07:05:32;3.90;99.90
50067;DHT22;35952;52.524;13.340;2023-04-03T07:07:57;4.10;99.90
50067;DHT22;35952;52.524;13.340;2023-04-03T07:10:23;4.20;99.90
50067;DHT22;35952;52.524;13.340;2023-04-03T07:12:48;4.30;99.90
50067;DHT22;35952;52.524;13.340;2023-04-03T07:15:14;4.50;99.90
50067;DHT22;35952;52.524;13.340;2023-04-03T07:17:40;5.10;99.90
50067;DHT22;35952;52.524;13.340;2023-04-03T07:20:06;6.80;99.90
50067;DHT22;35952;52.524;13.340;2023-04-03T07:22:32;8.60;87.50
50067;DHT22;35952;52.524;13.340;2023-04-03T07:24:58;9.90;73.10
50067;DHT22;35952;52.524;13.340;2023-04-03T07:27:24;10.40;59.70
50067;DHT22;35952;52.524;13.340;2023-04-03T07:29:50;10.00;57.80
50067;DHT22;35952;52.524;13.340;2023-04-03T07:32:16;9.20;58.50
50067;DHT22;35952;52.524;13.340;2023-04-03T07:34:41;8.50;59.00
50067;DHT22;35952;52.524;13.340;2023-04-03T07:37:07;8.10;60.10
50067;DHT22;35952;52.524;13.340;2023-04-03T07:39:34;7.80;60.80
50067;DHT22;35952;52.524;13.340;2023-04-03T07:42:00;7.40;60.60
50067;DHT22;35952;52.524;13.340;2023-04-03T07:44:26;8.30;60.90
50067;DHT22;35952;52.524;13.340;2023-04-03T07:46:51;9.50;57.30
50067;DHT22;35952;52.524;13.340;2023-04-03T07:49:17;10.40;53.40
50067;DHT22;35952;52.524;13.340;2023-04-03T07:51:48;10.50;52.30
50067;DHT22;35952;52.524;13.340;2023-04-03T07:54:14;12.10;50.10
50067;DHT22;35952;52.524;13.340;2023-04-03T07:56:40;13.30;45.90
50067;DHT22;35952;52.524;13.340;2023-04-03T07:59:05;13.10;44.40
50067;DHT22;35952;52.524;13.340;2023-04-03T08:01:31;12.70;44.20
50067;DHT22;35952;52.524;13.340;2023-04-03T08:03:58;11.80;45.10
50067;DHT22;35952;52.524;13.340;2023-04-03T08:06:24;10.20;46.90
50067;DHT22;35952;52.524;13.340;2023-04-03T08:08:54;8.60;49.50
50067;DHT22;35952;52.524;13.340;2023-04-03T08:11:21;7.50;53.70
50067;DHT22;35952;52.524;13.340;2023-04-03T08:13:46;8.30;55.80
50067;DHT22;35952;52.524;13.340;2023-04-03T08:16:17;10.40;52.30
50067;DHT22;35952;52.524;13.340;2023-04-03T08:18:44;12.00;47.10
50067;DHT22;35952;52.524;13.340;2023-04-03T08:21:10;13.40;45.60
50067;DHT22;35952;52.524;13.340;2023-04-03T08:23:37;15.20;42.00
50067;DHT22;35952;52.524;13.340;2023-04-03T08:26:14;16.10;41.70
50067;DHT22;35952;52.524;13.340;2023-04-03T08:28:40;16.80;40.80
50067;DHT22;35952;52.524;13.340;2023-04-03T08:31:09;15.40;38.60
50067;DHT22;35952;52.524;13.340;2023-04-03T08:33:36;15.30;38.30
50067;DHT22;35952;52.524;13.340;2023-04-03T08:36:04;14.10;38.80
50067;DHT22;35952;52.524;13.340;2023-04-03T08:38:30;12.10;40.20
50067;DHT22;35952;52.524;13.340;2023-04-03T08:41:29;11.20;43.50
50067;DHT22;35952;52.524;13.340;2023-04-03T08:49:24;8.70;46.10
50067;DHT22;35952;52.524;13.340;2023-04-03T08:51:52;8.40;48.80
50067;DHT22;35952;52.524;13.340;2023-04-03T08:54:28;8.30;49.20
50067;DHT22;35952;52.524;13.340;2023-04-03T08:56:55;8.10;48.30
50067;DHT22;35952;52.524;13.340;2023-04-03T08:59:28;8.10;50.10
50067;DHT22;35952;52.524;13.340;2023-04-03T09:01:56;7.90;49.10
50067;DHT22;35952;52.524;13.340;2023-04-03T09:04:23;7.60;49.60
50067;DHT22;35952;52.524;13.340;2023-04-03T09:06:56;7.60;50.00
50067;DHT22;35952;52.524;13.340;2023-04-03T09:09:35;7.60;50.20
50067;DHT22;35952;52.524;13.340;2023-04-03T09:12:23;7.70;50.10
50067;DHT22;35952;52.524;13.340;2023-04-03T09:20:28;11.10;47.00
50067;DHT22;35952;52.524;13.340;2023-04-03T09:22:56;12.60;43.70
50067;DHT22;35952;52.524;13.340;2023-04-03T09:25:33;13.10;41.20
50067;DHT22;35952;52.524;13.340;2023-04-03T09:28:00;13.20;40.20
50067;DHT22;35952;52.524;13.340;2023-04-03T09:30:27;14.20;37.80
50067;DHT22;35952;52.524;13.340;2023-04-03T09:32:57;13.40;36.70
50067;DHT22;35952;52.524;13.340;2023-04-03T09:35:30;11.70;38.70
50067;DHT22;35952;52.524;13.340;2023-04-03T09:38:14;10.20;40.80
50067;DHT22;35952;52.524;13.340;2023-04-03T09:40:40;9.00;43.60
50067;DHT22;35952;52.524;13.340;2023-04-03T09:43:38;8.00;45.00
50067;DHT22;35952;52.524;13.340;2023-04-03T09:46:32;7.30;47.00
50067;DHT22;35952;52.524;13.340;2023-04-03T09:49:04;7.50;48.90
50067;DHT22;35952;52.524;13.340;2023-04-03T09:51:31;8.00;48.30
50067;DHT22;35952;52.524;13.340;2023-04-03T09:53:57;9.30;47.90
50067;DHT22;35952;52.524;13.340;2023-04-03T09:56:26;11.90;45.40
50067;DHT22;35952;52.524;13.340;2023-04-03T10:01:34;14.70;37.20
50067;DHT22;35952;52.524;13.340;2023-04-03T10:04:13;13.90;37.20
50067;DHT22;35952;52.524;13.340;2023-04-03T10:06:41;12.90;38.70
50067;DHT22;35952;52.524;13.340;2023-04-03T10:11:58;11.10;41.90
50067;DHT22;35952;52.524;13.340;2023-04-03T10:14:24;10.90;45.00
50067;DHT22;35952;52.524;13.340;2023-04-03T10:16:59;11.20;42.20
50067;DHT22;35952;52.524;13.340;2023-04-03T10:38:48;10.00;41.60
50067;DHT22;35952;52.524;13.340;2023-04-03T10:41:17;10.00;42.80
50067;DHT22;35952;52.524;13.340;2023-04-03T10:47:02;12.70;39.00
50067;DHT22;35952;52.524;13.340;2023-04-03T10:49:55;12.40;38.70
50067;DHT22;35952;52.524;13.340;2023-04-03T10:52:44;11.50;38.50
50067;DHT22;35952;52.524;13.340;2023-04-03T10:57:39;9.70;41.10
50067;DHT22;35952;52.524;13.340;2023-04-03T11:00:22;8.90;42.80
50067;DHT22;35952;52.524;13.340;2023-04-03T11:02:58;8.80;44.00
50067;DHT22;35952;52.524;13.340;2023-04-03T11:05:40;8.60;45.00
50067;DHT22;35952;52.524;13.340;2023-04-03T11:10:45;8.80;45.80
50067;DHT22;35952;52.524;13.340;2023-04-03T11:13:15;8.80;46.10
50067;DHT22;35952;52.524;13.340;2023-04-03T11:15:43;8.90;45.30
50067;DHT22;35952;52.524;13.340;2023-04-03T11:18:14;8.80;45.60
50067;DHT22;35952;52.524;13.340;2023-04-03T11:21:04;8.90;46.10
50067;DHT22;35952;52.524;13.340;2023-04-03T11:23:35;8.50;46.30
50067;DHT22;35952;52.524;13.340;2023-04-03T11:26:12;8.20;47.40
50067;DHT22;35952;52.524;13.340;2023-04-03T11:28:39;7.90;47.50
50067;DHT22;35952;52.524;13.340;2023-04-03T11:31:12;7.60;48.20
50067;DHT22;35952;52.524;13.340;2023-04-03T11:36:34;7.60;48.70
50067;DHT22;35952;52.524;13.340;2023-04-03T11:41:53;7.60;48.90
50067;DHT22;35952;52.524;13.340;2023-04-03T11:44:36;7.70;49.30
50067;DHT22;35952;52.524;13.340;2023-04-03T11:47:09;7.70;49.50
50067;DHT22;35952;52.524;13.340;2023-04-03T11:49:51;7.70;50.10
50067;DHT22;35952;52.524;13.340;2023-04-03T12:00:56;7.70;48.70
50067;DHT22;35952;52.524;13.340;2023-04-03T12:05:48;7.20;50.40
50067;DHT22;35952;52.524;13.340;2023-04-03T12:08:36;7.40;51.70
50067;DHT22;35952;52.524;13.340;2023-04-03T12:13:34;7.40;51.00
50067;DHT22;35952;52.524;13.340;2023-04-03T12:16:00;7.30;51.80
50067;DHT22;35952;52.524;13.340;2023-04-03T12:18:39;6.90;51.50
50067;DHT22;35952;52.524;13.340;2023-04-03T12:21:06;6.80;52.20
50067;DHT22;35952;52.524;13.340;2023-04-03T12:23:34;6.80;53.70
50067;DHT22;35952;52.524;13.340;2023-04-03T12:26:05;6.80;52.80
50067;DHT22;35952;52.524;13.340;2023-04-03T12:28:41;6.70;53.10
50067;DHT22;35952;52.524;13.340;2023-04-03T12:31:10;6.60;53.00
50067;DHT22;35952;52.524;13.340;2023-04-03T12:33:50;6.60;53.90
50067;DHT22;35952;52.524;13.340;2023-04-03T12:36:42;6.70;53.90
50067;DHT22;35952;52.524;13.340;2023-04-03T12:42:35;7.00;53.50
50067;DHT22;35952;52.524;13.340;2023-04-03T12:45:20;6.90;54.30
50067;DHT22;35952;52.524;13.340;2023-04-03T12:47:49;7.10;53.30
50067;DHT22;35952;52.524;13.340;2023-04-03T12:55:22;8.30;50.10
50067;DHT22;35952;52.524;13.340;2023-04-03T12:57:47;8.90;50.20
50067;DHT22;35952;52.524;13.340;2023-04-03T13:00:28;8.90;47.40
50067;DHT22;35952;52.524;13.340;2023-04-03T13:02:54;8.70;47.40
50067;DHT22;35952;52.524;13.340;2023-04-03T13:05:22;8.10;48.70
50067;DHT22;35952;52.524;13.340;2023-04-03T13:07:58;7.90;49.10
50067;DHT22;35952;52.524;13.340;2023-04-03T13:10:24;7.50;49.90
50067;DHT22;35952;52.524;13.340;2023-04-03T13:12:55;7.20;50.90
50067;DHT22;35952;52.524;13.340;2023-04-03T13:15:24;7.00;51.60
50067;DHT22;35952;52.524;13.340;2023-04-03T13:17:51;6.80;52.20
50067;DHT22;35952;52.524;13.340;2023-04-03T13:22:53;6.80;53.10
50067;DHT22;35952;52.524;13.340;2023-04-03T13:25:23;6.70;54.10
50067;DHT22;35952;52.524;13.340;2023-04-03T13:27:50;6.60;53.80
50067;DHT22;35952;52.524;13.340;2023-04-03T13:30:28;6.70;54.60
50067;DHT22;35952;52.524;13.340;2023-04-03T13:32:56;6.70;54.40
50067;DHT22;35952;52.524;13.340;2023-04-03T13:35:37;6.70;54.50
50067;DHT22;35952;52.524;13.340;2023-04-03T13:40:53;6.60;54.10
50067;DHT22;35952;52.524;13.340;2023-04-03T13:43:25;6.60;54.70
50067;DHT22;35952;52.524;13.340;2023-04-03T13:46:24;6.70;54.80
50067;DHT22;35952;52.524;13.340;2023-04-03T13:48:52;6.70;55.70
50067;DHT22;35952;52.524;13.340;2023-04-03T13:51:22;6.80;54.70
50067;DHT22;35952;52.524;13.340;2023-04-03T13:56:27;6.80;54.80
50067;DHT22;35952;52.524;13.340;2023-04-03T13:58:56;6.70;54.60
50067;DHT22;35952;52.524;13.340;2023-04-03T14:01:23;6.60;54.80
50067;DHT22;35952;52.524;13.340;2023-04-03T14:04:09;6.60;55.00
50067;DHT22;35952;52.524;13.340;2023-04-03T14:06:35;6.60;55.50
50067;DHT22;35952;52.524;13.340;2023-04-03T14:09:01;6.80;55.50
50067;DHT22;35952;52.524;13.340;2023-04-03T14:11:29;6.80;55.70
50067;DHT22;35952;52.524;13.340;2023-04-03T14:13:58;6.90;55.80
50067;DHT22;35952;52.524;13.340;2023-04-03T14:16:30;6.90;55.70
50067;DHT22;35952;52.524;13.340;2023-04-03T14:18:56;7.00;55.80
50067;DHT22;35952;52.524;13.340;2023-04-03T14:21:21;7.10;56.00
50067;DHT22;35952;52.524;13.340;2023-04-03T14:23:47;7.10;55.70
50067;DHT22;35952;52.524;13.340;2023-04-03T14:26:18;7.00;55.70
50067;DHT22;35952;52.524;13.340;2023-04-03T14:28:46;7.10;55.60
50067;DHT22;35952;52.524;13.340;2023-04-03T14:31:14;7.20;54.70
50067;DHT22;35952;52.524;13.340;2023-04-03T14:33:41;7.30;55.20
50067;DHT22;35952;52.524;13.340;2023-04-03T14:36:13;7.20;55.10
50067;DHT22;35952;52.524;13.340;2023-04-03T14:38:40;7.20;54.70
50067;DHT22;35952;52.524;13.340;2023-04-03T14:41:06;7.30;55.00
50067;DHT22;35952;52.524;13.340;2023-04-03T14:43:32;8.00;54.50
50067;DHT22;35952;52.524;13.340;2023-04-03T14:45:58;10.00;50.60
50067;DHT22;35952;52.524;13.340;2023-04-03T14:48:26;10.60;47.50
50067;DHT22;35952;52.524;13.340;2023-04-03T14:50:53;10.40;47.50
50067;DHT22;35952;52.524;13.340;2023-04-03T14:53:19;10.00;48.40
50067;DHT22;35952;52.524;13.340;2023-04-03T14:55:48;9.30;50.00
50067;DHT22;35952;52.524;13.340;2023-04-03T14:58:16;8.40;51.70
50067;DHT22;35952;52.524;13.340;2023-04-03T15:00:42;7.90;53.60
50067;DHT22;35952;52.524;13.340;2023-04-03T15:03:20;7.50;55.00
50067;DHT22;35952;52.524;13.340;2023-04-03T15:05:48;7.20;56.10
50067;DHT22;35952;52.524;13.340;2023-04-03T15:08:19;7.00;56.80
50067;DHT22;35952;52.524;13.340;2023-04-03T15:10:45;6.80;57.60
50067;DHT22;35952;52.524;13.340;2023-04-03T15:13:12;6.50;58.50
50067;DHT22;35952;52.524;13.340;2023-04-03T15:15:38;6.30;59.80
50067;DHT22;35952;52.524;13.340;2023-04-03T15:18:03;6.20;61.10
50067;DHT22;35952;52.524;13.340;2023-04-03T15:20:30;6.10;62.90
50067;DHT22;35952;52.524;13.340;2023-04-03T15:22:59;6.00;64.40
50067;DHT22;35952;52.524;13.340;2023-04-03T15:25:28;6.00;67.00
50067;DHT22;35952;52.524;13.340;2023-04-03T15:27:55;6.00;68.20
50067;DHT22;35952;52.524;13.340;2023-04-03T15:30:22;6.00;69.80
50067;DHT22;35952;52.524;13.340;2023-04-03T15:32:48;6.00;70.70
50067;DHT22;35952;52.524;13.340;2023-04-03T15:35:15;6.00;72.60
50067;DHT22;35952;52.524;13.340;2023-04-03T15:37:41;6.00;74.50
50067;DHT22;35952;52.524;13.340;2023-04-03T15:40:07;5.90;72.00
50067;DHT22;35952;52.524;13.340;2023-04-03T15:42:33;5.90;74.80
50067;DHT22;35952;52.524;13.340;2023-04-03T15:44:59;6.00;75.20
50067;DHT22;35952;52.524;13.340;2023-04-03T15:47:25;6.00;74.40
50067;DHT22;35952;52.524;13.340;2023-04-03T15:49:51;5.90;73.50
50067;DHT22;35952;52.524;13.340;2023-04-03T15:52:17;5.90;75.00
50067;DHT22;35952;52.524;13.340;2023-04-03T15:54:42;5.90;73.60
50067;DHT22;35952;52.524;13.340;2023-04-03T15:57:08;5.80;73.10
50067;DHT22;35952;52.524;13.340;2023-04-03T15:59:33;5.90;76.00
50067;DHT22;35952;52.524;13.340;2023-04-03T16:01:59;5.90;73.90
50067;DHT22;35952;52.524;13.340;2023-04-03T16:04:27;6.00;73.60
50067;DHT22;35952;52.524;13.340;2023-04-03T16:06:53;6.00;74.60
50067;DHT22;35952;52.524;13.340;2023-04-03T16:09:19;5.90;71.80
50067;DHT22;35952;52.524;13.340;2023-04-03T16:11:44;5.70;72.90
50067;DHT22;35952;52.524;13.340;2023-04-03T16:14:10;5.60;75.60
50067;DHT22;35952;52.524;13.340;2023-04-03T16:16:36;5.40;77.60
50067;DHT22;35952;52.524;13.340;2023-04-03T16:19:02;5.40;80.70
50067;DHT22;35952;52.524;13.340;2023-04-03T16:21:29;5.30;83.70
50067;DHT22;35952;52.524;13.340;2023-04-03T16:23:57;5.30;84.70
50067;DHT22;35952;52.524;13.340;2023-04-03T16:26:23;5.40;86.00
50067;DHT22;35952;52.524;13.340;2023-04-03T16:28:50;5.50;85.20
50067;DHT22;35952;52.524;13.340;2023-04-03T16:31:16;5.70;82.70
50067;DHT22;35952;52.524;13.340;2023-04-03T16:33:41;5.80;83.90
50067;DHT22;35952;52.524;13.340;2023-04-03T16:36:07;6.00;82.80
50067;DHT22;35952;52.524;13.340;2023-04-03T16:38:33;6.00;84.00
50067;DHT22;35952;52.524;13.340;2023-04-03T16:40:58;6.10;83.60
50067;DHT22;35952;52.524;13.340;2023-04-03T16:43:25;6.20;82.40
50067;DHT22;35952;52.524;13.340;2023-04-03T16:45:51;6.10;82.60
50067;DHT22;35952;52.524;13.340;2023-04-03T16:48:17;6.00;83.70
50067;DHT22;35952;52.524;13.340;2023-04-03T16:50:46;6.00;85.90
50067;DHT22;35952;52.524;13.340;2023-04-03T16:53:15;5.90;88.30
50067;DHT22;35952;52.524;13.340;2023-04-03T16:55:41;5.90;90.10
50067;DHT22;35952;52.524;13.340;2023-04-03T16:58:07;5.90;90.30
50067;DHT22;35952;52.524;13.340;2023-04-03T17:00:33;5.90;90.90
50067;DHT22;35952;52.524;13.340;2023-04-03T17:02:59;5.80;92.00
50067;DHT22;35952;52.524;13.340;2023-04-03T17:05:25;5.70;92.20
50067;DHT22;35952;52.524;13.340;2023-04-03T17:07:51;5.60;92.70
50067;DHT22;35952;52.524;13.340;2023-04-03T17:10:17;5.60;93.40
50067;DHT22;35952;52.524;13.340;2023-04-03T17:12:42;5.40;95.10